createdAt,value
2022-11-10T00:01:06.517Z,8.98
2022-11-10T00:03:33.728Z,8.97
2022-11-10T00:06:03.437Z,8.97
2022-11-10T00:08:30.441Z,8.97
2022-11-10T00:11:01.831Z,8.97
2022-11-10T00:13:31.945Z,8.96
2022-11-10T00:16:19.135Z,8.94
2022-11-10T00:18:45.757Z,8.94
2022-11-10T00:21:16.144Z,8.93
2022-11-10T00:23:42.781Z,8.91
2022-11-10T00:26:20.978Z,8.91
2022-11-10T00:28:47.650Z,8.90
2022-11-10T00:31:17.366Z,8.90
2022-11-10T00:33:44.552Z,8.90
2022-11-10T00:36:11.821Z,8.90
2022-11-10T00:38:41.321Z,8.89
2022-11-10T00:41:08.045Z,8.86
2022-11-10T00:43:37.652Z,8.83
2022-11-10T00:46:04.371Z,8.82
2022-11-10T00:48:33.924Z,8.79
2022-11-10T00:51:00.480Z,8.75
2022-11-10T00:53:27.164Z,8.73
2022-11-10T00:55:53.827Z,8.73
2022-11-10T00:58:20.469Z,8.70
2022-11-10T01:00:47.106Z,8.68
2022-11-10T01:03:19.580Z,8.66
2022-11-10T01:05:46.392Z,8.62
2022-11-10T01:08:13.023Z,8.60
2022-11-10T01:10:39.738Z,8.59
2022-11-10T01:13:06.378Z,8.58
2022-11-10T01:15:38.373Z,8.55
2022-11-10T01:18:06.356Z,8.54
2022-11-10T01:20:36.064Z,8.52
2022-11-10T01:23:02.679Z,8.50
2022-11-10T01:25:29.260Z,8.50
2022-11-10T01:27:55.873Z,8.50
2022-11-10T01:30:22.445Z,8.48
2022-11-10T01:32:51.911Z,8.45
2022-11-10T01:35:18.539Z,8.43
2022-11-10T01:37:47.319Z,8.41
2022-11-10T01:40:14.273Z,8.40
2022-11-10T01:42:55.551Z,8.40
2022-11-10T01:45:24.947Z,8.39
2022-11-10T01:48:00.931Z,8.36
2022-11-10T01:50:33.014Z,8.32
2022-11-10T01:53:03.311Z,8.28
2022-11-10T01:55:31.123Z,8.26
2022-11-10T01:57:58.237Z,8.24
2022-11-10T02:00:25.087Z,8.24
2022-11-10T02:03:01.600Z,8.24
2022-11-10T02:05:28.332Z,8.27
2022-11-10T02:07:56.947Z,8.28
2022-11-10T02:10:23.632Z,8.30
2022-11-10T02:12:50.424Z,8.30
2022-11-10T02:15:18.264Z,8.34
2022-11-10T02:17:47.365Z,8.35
2022-11-10T02:20:18.757Z,8.37
2022-11-10T02:22:45.416Z,8.39
2022-11-10T02:25:15.532Z,8.41
2022-11-10T02:27:42.100Z,8.44
2022-11-10T02:30:09.206Z,8.47
2022-11-10T02:32:36.295Z,8.51
2022-11-10T02:35:03.367Z,8.53
2022-11-10T02:37:30.017Z,8.56
2022-11-10T02:39:56.572Z,8.56
2022-11-10T02:42:23.173Z,8.58
2022-11-10T02:44:49.743Z,8.59
2022-11-10T02:47:16.303Z,8.62
2022-11-10T02:49:44.989Z,8.62
2022-11-10T02:52:11.571Z,8.64
2022-11-10T02:54:38.157Z,8.67
2022-11-10T02:57:04.756Z,8.70
2022-11-10T02:59:31.333Z,8.72
2022-11-10T03:01:57.887Z,8.75
2022-11-10T03:04:24.531Z,8.78
2022-11-10T03:06:51.174Z,8.77
2022-11-10T03:09:17.825Z,8.79
2022-11-10T03:11:44.409Z,8.81
2022-11-10T03:14:10.990Z,8.82
2022-11-10T03:16:37.539Z,8.86
2022-11-10T03:19:04.300Z,8.87
2022-11-10T03:21:30.925Z,8.88
2022-11-10T03:23:57.478Z,8.88
2022-11-10T03:26:24.072Z,8.88
2022-11-10T03:28:50.836Z,8.89
2022-11-10T03:31:17.392Z,8.91
2022-11-10T03:33:43.964Z,8.91
2022-11-10T03:36:10.512Z,8.92
2022-11-10T03:38:37.067Z,8.93
2022-11-10T03:41:18.672Z,8.92
2022-11-10T03:43:46.286Z,8.94
2022-11-10T03:46:12.852Z,8.93
2022-11-10T03:48:39.424Z,8.93
2022-11-10T03:51:09.102Z,8.95
2022-11-10T03:53:35.726Z,8.95
2022-11-10T03:56:03.886Z,8.96
2022-11-10T03:58:30.593Z,8.96
2022-11-10T04:00:57.526Z,8.96
2022-11-10T04:03:26.330Z,8.96
2022-11-10T04:06:11.576Z,9.00
2022-11-10T04:08:56.685Z,9.03
2022-11-10T04:11:42.187Z,9.01
2022-11-10T04:14:27.518Z,9.00
2022-11-10T04:16:54.218Z,8.99
2022-11-10T04:19:20.760Z,8.99
2022-11-10T04:21:47.548Z,8.99
2022-11-10T04:24:14.288Z,8.97
2022-11-10T04:26:42.823Z,8.97
2022-11-10T04:29:11.440Z,8.98
2022-11-10T04:31:41.806Z,9.00
2022-11-10T04:34:11.101Z,9.05
2022-11-10T04:36:40.022Z,9.04
2022-11-10T04:39:08.069Z,9.04
2022-11-10T04:41:35.259Z,9.05
2022-11-10T04:44:01.871Z,9.04
2022-11-10T04:46:32.594Z,9.04
2022-11-10T04:48:59.861Z,9.04
2022-11-10T04:51:35.105Z,9.03
2022-11-10T04:54:05.079Z,9.07
2022-11-10T04:56:31.782Z,9.06
2022-11-10T04:58:58.410Z,9.08
2022-11-10T05:01:27.748Z,9.09
2022-11-10T05:03:55.305Z,9.09
2022-11-10T05:06:22.691Z,9.09
2022-11-10T05:08:49.597Z,9.10
2022-11-10T05:11:17.181Z,9.12
2022-11-10T05:13:44.803Z,9.13
2022-11-10T05:16:12.294Z,9.16
2022-11-10T05:18:39.148Z,9.16
2022-11-10T05:21:05.948Z,9.17
2022-11-10T05:23:38.427Z,9.17
2022-11-10T05:26:09.464Z,9.16
2022-11-10T05:28:36.237Z,9.17
2022-11-10T05:31:03.495Z,9.16
2022-11-10T05:33:30.257Z,9.16
2022-11-10T05:35:56.991Z,9.16
2022-11-10T05:38:23.874Z,9.16
2022-11-10T05:40:50.575Z,9.19
2022-11-10T05:43:17.172Z,9.19
2022-11-10T05:45:43.724Z,9.20
2022-11-10T05:48:10.691Z,9.21
2022-11-10T05:50:37.436Z,9.22
2022-11-10T05:53:03.969Z,9.25
2022-11-10T05:55:30.890Z,9.26
2022-11-10T05:57:57.850Z,9.27
2022-11-10T06:00:28.427Z,9.29
2022-11-10T06:02:59.148Z,9.29
2022-11-10T06:05:30.952Z,9.30
2022-11-10T06:07:58.493Z,9.31
2022-11-10T06:10:25.843Z,9.32
2022-11-10T06:12:52.564Z,9.32
2022-11-10T06:15:19.388Z,9.33
2022-11-10T06:17:46.023Z,9.29
2022-11-10T06:20:14.690Z,9.32
2022-11-10T06:22:41.488Z,9.30
2022-11-10T06:25:09.325Z,9.29
2022-11-10T06:27:36.203Z,9.28
2022-11-10T06:30:03.712Z,9.28
2022-11-10T06:32:30.309Z,9.28
2022-11-10T06:35:00.433Z,9.26
2022-11-10T06:37:27.439Z,9.28
2022-11-10T06:39:54.050Z,9.28
2022-11-10T06:42:20.636Z,9.25
2022-11-10T06:44:47.189Z,9.23
2022-11-10T06:47:17.037Z,9.21
2022-11-10T06:49:43.597Z,9.19
2022-11-10T06:52:10.123Z,9.19
2022-11-10T06:54:36.773Z,9.19
2022-11-10T06:57:03.345Z,9.20
2022-11-10T06:59:29.917Z,9.21
2022-11-10T07:01:56.477Z,9.22
2022-11-10T07:04:23.121Z,9.22
2022-11-10T07:06:49.747Z,9.23
2022-11-10T07:09:16.430Z,9.24
2022-11-10T07:11:43.329Z,9.25
2022-11-10T07:14:10.382Z,9.27
2022-11-10T07:16:36.980Z,9.27
2022-11-10T07:19:03.771Z,9.27
2022-11-10T07:21:30.396Z,9.28
2022-11-10T07:23:56.956Z,9.29
2022-11-10T07:26:23.582Z,9.31
2022-11-10T07:28:50.147Z,9.32
2022-11-10T07:31:16.717Z,9.35
2022-11-10T07:33:44.147Z,9.38
2022-11-10T07:36:10.761Z,9.37
2022-11-10T07:38:37.424Z,9.37
2022-11-10T07:41:04.110Z,9.38
2022-11-10T07:43:30.668Z,9.40
2022-11-10T07:45:57.741Z,9.42
2022-11-10T07:48:24.298Z,9.43
2022-11-10T07:50:51.211Z,9.44
2022-11-10T07:53:20.652Z,9.45
2022-11-10T07:55:48.143Z,9.47
2022-11-10T07:58:17.453Z,9.51
2022-11-10T08:00:45.032Z,9.52
2022-11-10T08:03:15.230Z,9.52
2022-11-10T08:05:41.927Z,9.54
2022-11-10T08:08:08.627Z,9.53
2022-11-10T08:10:36.105Z,9.56
2022-11-10T08:13:05.546Z,9.58
2022-11-10T08:15:33.363Z,9.61
2022-11-10T08:18:08.856Z,9.63
2022-11-10T08:20:35.704Z,9.63
2022-11-10T08:23:05.624Z,9.67
2022-11-10T08:25:35.305Z,9.69
2022-11-10T08:28:07.947Z,9.71
2022-11-10T08:30:36.291Z,9.75
2022-11-10T08:33:04.991Z,9.78
2022-11-10T08:35:34.738Z,9.78
2022-11-10T08:38:27.630Z,9.80
2022-11-10T08:40:57.496Z,9.84
2022-11-10T08:43:25.030Z,9.87
2022-11-10T08:45:54.776Z,9.90
2022-11-10T08:48:21.374Z,9.92
2022-11-10T08:50:49.634Z,9.93
2022-11-10T08:53:19.601Z,9.96
2022-11-10T08:55:47.004Z,9.96
2022-11-10T08:58:17.539Z,9.94
2022-11-10T09:00:44.910Z,9.90
2022-11-10T09:03:23.804Z,9.89
2022-11-10T09:05:57.645Z,9.93
2022-11-10T09:08:24.781Z,9.97
2022-11-10T09:10:51.421Z,9.99
2022-11-10T09:13:23.466Z,10.03
2022-11-10T09:15:52.840Z,10.06
2022-11-10T09:18:19.439Z,10.09
2022-11-10T09:20:46.333Z,10.16
2022-11-10T09:23:15.923Z,10.20
2022-11-10T09:25:48.304Z,10.24
2022-11-10T09:28:16.216Z,10.32
2022-11-10T09:30:45.748Z,10.35
2022-11-10T09:33:12.596Z,10.38
2022-11-10T09:35:39.302Z,10.40
2022-11-10T09:38:06.271Z,10.42
2022-11-10T09:40:57.991Z,10.48
2022-11-10T09:43:53.757Z,10.57
2022-11-10T09:46:40.591Z,10.60
2022-11-10T09:49:12.901Z,10.61
2022-11-10T09:51:47.097Z,10.60
2022-11-10T09:54:21.090Z,10.61
2022-11-10T09:56:48.002Z,10.61
2022-11-10T09:59:26.691Z,10.63
2022-11-10T10:02:03.221Z,10.64
2022-11-10T10:04:51.689Z,10.66
2022-11-10T10:07:55.599Z,10.69
2022-11-10T10:10:34.453Z,10.74
2022-11-10T10:13:51.155Z,10.77
2022-11-10T10:16:23.345Z,10.78
2022-11-10T10:18:55.737Z,10.77
2022-11-10T10:21:51.758Z,10.77
2022-11-10T10:24:22.356Z,10.78
2022-11-10T10:26:59.110Z,10.80
2022-11-10T10:29:37.001Z,10.79
2022-11-10T10:32:04.587Z,10.77
2022-11-10T10:34:34.494Z,10.76
2022-11-10T10:37:01.582Z,10.75
2022-11-10T10:39:42.671Z,10.75
2022-11-10T10:42:35.415Z,10.78
2022-11-10T10:45:23.226Z,10.79
2022-11-10T10:47:53.593Z,10.81
2022-11-10T10:50:33.610Z,10.82
2022-11-10T10:53:14.358Z,10.81
2022-11-10T10:56:16.284Z,10.80
2022-11-10T10:58:54.770Z,10.80
2022-11-10T11:01:31.864Z,10.80
2022-11-10T11:04:04.936Z,10.81
2022-11-10T11:06:33.440Z,10.80
2022-11-10T11:09:38.489Z,10.82
2022-11-10T11:12:08.734Z,10.82
2022-11-10T11:14:35.321Z,10.83
2022-11-10T11:17:19.875Z,10.85
2022-11-10T11:19:46.640Z,10.89
2022-11-10T11:22:16.049Z,10.96
2022-11-10T11:25:17.156Z,11.00
2022-11-10T11:27:53.096Z,11.01
2022-11-10T11:30:23.923Z,11.04
2022-11-10T11:33:12.757Z,11.05
2022-11-10T11:35:39.325Z,11.07
2022-11-10T11:38:34.211Z,11.07
2022-11-10T11:41:19.200Z,11.07
2022-11-10T11:43:57.605Z,11.09
2022-11-10T11:46:49.349Z,11.08
2022-11-10T11:49:28.192Z,11.08
2022-11-10T11:52:06.848Z,11.09
2022-11-10T11:54:51.944Z,11.08
2022-11-10T11:58:04.041Z,11.09
2022-11-10T12:00:56.047Z,11.08
2022-11-10T12:03:38.306Z,11.05
2022-11-10T12:06:33.007Z,11.06
2022-11-10T12:09:41.399Z,11.06
2022-11-10T12:12:07.895Z,11.05
2022-11-10T12:14:55.691Z,11.05
2022-11-10T12:17:34.262Z,11.02
2022-11-10T12:20:19.303Z,11.01
2022-11-10T12:22:57.853Z,10.99
2022-11-10T12:25:49.100Z,10.98
2022-11-10T12:28:25.883Z,10.96
2022-11-10T12:31:01.731Z,10.94
2022-11-10T12:33:34.863Z,10.93
2022-11-10T12:36:05.733Z,10.91
2022-11-10T12:39:00.901Z,10.91
2022-11-10T12:41:37.375Z,10.91
2022-11-10T12:44:41.676Z,10.93
2022-11-10T12:47:15.817Z,10.91
2022-11-10T12:49:57.791Z,10.90
2022-11-10T12:52:36.701Z,10.90
2022-11-10T12:55:04.298Z,10.89
2022-11-10T12:57:31.904Z,10.88
2022-11-10T13:00:08.256Z,10.87
2022-11-10T13:02:40.490Z,10.85
2022-11-10T13:05:25.689Z,10.84
2022-11-10T13:08:27.221Z,10.83
2022-11-10T13:11:12.200Z,10.82
2022-11-10T13:13:46.078Z,10.80
2022-11-10T13:16:41.264Z,10.77
2022-11-10T13:19:38.945Z,10.75
2022-11-10T13:22:10.234Z,10.72
2022-11-10T13:24:42.600Z,10.68
2022-11-10T13:27:33.528Z,10.68
2022-11-10T13:30:00.358Z,10.67
2022-11-10T13:32:34.167Z,10.69
2022-11-10T13:35:28.347Z,10.70
2022-11-10T13:37:56.560Z,10.71
2022-11-10T13:40:23.372Z,10.72
2022-11-10T13:42:58.845Z,10.71
2022-11-10T13:45:34.460Z,10.72
2022-11-10T13:48:27.810Z,10.71
2022-11-10T13:51:08.228Z,10.67
2022-11-10T13:53:40.831Z,10.64
2022-11-10T13:56:19.612Z,10.57
2022-11-10T13:58:46.655Z,10.53
2022-11-10T14:01:19.056Z,10.48
2022-11-10T14:03:48.751Z,10.46
2022-11-10T14:06:22.662Z,10.42
2022-11-10T14:09:18.422Z,10.36
2022-11-10T14:11:56.709Z,10.30
2022-11-10T14:14:33.665Z,10.28
2022-11-10T14:17:00.977Z,10.25
2022-11-10T14:19:39.028Z,10.19
2022-11-10T14:22:27.465Z,10.14
2022-11-10T14:25:01.824Z,10.11
2022-11-10T14:27:32.272Z,10.09
2022-11-10T14:30:08.170Z,10.07
2022-11-10T14:32:35.752Z,10.05
2022-11-10T14:35:02.588Z,10.04
2022-11-10T14:37:29.987Z,10.04
2022-11-10T14:40:02.097Z,10.04
2022-11-10T14:42:31.340Z,10.05
2022-11-10T14:45:16.215Z,10.03
2022-11-10T14:47:43.356Z,10.03
2022-11-10T14:50:18.893Z,10.01
2022-11-10T14:52:48.440Z,10.01
2022-11-10T14:55:20.401Z,10.01
2022-11-10T14:57:54.043Z,10.04
2022-11-10T15:00:25.688Z,10.08
2022-11-10T15:02:54.824Z,10.12
2022-11-10T15:05:21.871Z,10.15
2022-11-10T15:07:52.695Z,10.17
2022-11-10T15:10:25.556Z,10.21
2022-11-10T15:13:00.264Z,10.21
2022-11-10T15:15:26.936Z,10.22
2022-11-10T15:17:53.859Z,10.22
2022-11-10T15:20:57.825Z,10.18
2022-11-10T15:23:33.577Z,10.16
2022-11-10T15:26:00.742Z,10.13
2022-11-10T15:28:35.145Z,10.09
2022-11-10T15:31:05.467Z,10.07
2022-11-10T15:33:35.591Z,10.02
2022-11-10T15:36:35.968Z,9.98
2022-11-10T15:39:11.732Z,9.97
2022-11-10T15:41:43.440Z,9.93
2022-11-10T15:44:28.125Z,9.93
2022-11-10T15:46:56.861Z,9.91
2022-11-10T15:49:27.440Z,9.89
2022-11-10T15:52:02.867Z,9.87
2022-11-10T15:54:32.043Z,9.84
2022-11-10T15:56:58.629Z,9.81
2022-11-10T15:59:25.238Z,9.78
2022-11-10T16:01:52.703Z,9.79
2022-11-10T16:04:19.367Z,9.78
2022-11-10T16:06:47.203Z,9.77
2022-11-10T16:09:14.229Z,9.74
2022-11-10T16:11:44.148Z,9.71
2022-11-10T16:14:14.640Z,9.70
2022-11-10T16:16:42.000Z,9.68
2022-11-10T16:19:12.725Z,9.65
2022-11-10T16:21:39.391Z,9.63
2022-11-10T16:24:06.306Z,9.61
2022-11-10T16:26:34.529Z,9.58
2022-11-10T16:29:01.555Z,9.57
2022-11-10T16:31:28.283Z,9.54
2022-11-10T16:33:55.197Z,9.49
2022-11-10T16:36:26.200Z,9.47
2022-11-10T16:38:54.174Z,9.47
2022-11-10T16:41:20.959Z,9.46
2022-11-10T16:43:47.790Z,9.45
2022-11-10T16:46:22.016Z,9.44
2022-11-10T16:48:51.281Z,9.44
2022-11-10T16:51:18.320Z,9.44
2022-11-10T16:53:45.522Z,9.45
2022-11-10T16:56:16.231Z,9.45
2022-11-10T16:58:42.956Z,9.44
2022-11-10T17:01:20.713Z,9.44
2022-11-10T17:03:53.473Z,9.43
2022-11-10T17:06:23.192Z,9.43
2022-11-10T17:08:52.112Z,9.41
2022-11-10T17:11:19.219Z,9.42
2022-11-10T17:13:45.874Z,9.41
2022-11-10T17:16:29.742Z,9.41
2022-11-10T17:18:59.516Z,9.40
2022-11-10T17:21:32.543Z,9.40
2022-11-10T17:24:00.329Z,9.36
2022-11-10T17:26:27.940Z,9.36
2022-11-10T17:28:54.591Z,9.35
2022-11-10T17:31:21.219Z,9.32
2022-11-10T17:33:47.825Z,9.31
2022-11-10T17:36:18.946Z,9.30
2022-11-10T17:38:46.167Z,9.29
2022-11-10T17:41:17.943Z,9.28
2022-11-10T17:43:47.887Z,9.28
2022-11-10T17:46:15.330Z,9.28
2022-11-10T17:48:42.835Z,9.29
2022-11-10T17:51:19.248Z,9.28
2022-11-10T17:53:46.025Z,9.29
2022-11-10T17:56:13.167Z,9.28
2022-11-10T17:58:40.050Z,9.27
2022-11-10T18:01:18.553Z,9.29
2022-11-10T18:03:48.096Z,9.26
2022-11-10T18:06:15.915Z,9.28
2022-11-10T18:08:43.104Z,9.28
2022-11-10T18:11:11.830Z,9.30
2022-11-10T18:13:39.880Z,9.29
2022-11-10T18:16:09.008Z,9.29
2022-11-10T18:18:36.790Z,9.28
2022-11-10T18:21:05.456Z,9.30
2022-11-10T18:23:32.660Z,9.34
2022-11-10T18:26:07.468Z,9.36
2022-11-10T18:28:35.095Z,9.38
2022-11-10T18:31:13.169Z,9.40
2022-11-10T18:33:40.622Z,9.44
2022-11-10T18:36:07.641Z,9.45
2022-11-10T18:38:34.241Z,9.48
2022-11-10T18:41:25.274Z,9.48
2022-11-10T18:43:52.281Z,9.49
2022-11-10T18:46:18.985Z,9.51
2022-11-10T18:48:46.897Z,9.52
2022-11-10T18:51:14.280Z,9.53
2022-11-10T18:53:40.905Z,9.56
2022-11-10T18:56:07.668Z,9.56
2022-11-10T18:58:34.330Z,9.59
2022-11-10T19:01:09.565Z,9.60
2022-11-10T19:03:36.985Z,9.62
2022-11-10T19:06:03.838Z,9.63
2022-11-10T19:08:30.402Z,9.64
2022-11-10T19:10:57.783Z,9.64
2022-11-10T19:13:24.858Z,9.67
2022-11-10T19:15:51.843Z,9.69
2022-11-10T19:18:18.404Z,9.70
2022-11-10T19:20:45.050Z,9.71
2022-11-10T19:23:11.662Z,9.72
2022-11-10T19:25:38.206Z,9.73
2022-11-10T19:28:04.869Z,9.74
2022-11-10T19:30:31.726Z,9.76
2022-11-10T19:32:59.224Z,9.77
2022-11-10T19:35:25.782Z,9.78
2022-11-10T19:37:54.114Z,9.79
2022-11-10T19:40:21.903Z,9.82
2022-11-10T19:42:48.537Z,9.83
2022-11-10T19:45:16.647Z,9.85
2022-11-10T19:47:43.790Z,9.86
2022-11-10T19:50:10.519Z,9.86
2022-11-10T19:52:37.122Z,9.87
2022-11-10T19:55:04.021Z,9.89
2022-11-10T19:57:30.641Z,9.91
2022-11-10T19:59:57.266Z,9.93
2022-11-10T20:02:23.847Z,9.93
2022-11-10T20:05:08.949Z,9.95
2022-11-10T20:07:54.107Z,9.97
2022-11-10T20:10:20.714Z,9.99
2022-11-10T20:12:47.402Z,10.01
2022-11-10T20:15:14.135Z,10.04
2022-11-10T20:17:40.928Z,10.07
2022-11-10T20:20:07.924Z,10.08
2022-11-10T20:22:34.882Z,10.09
2022-11-10T20:25:01.584Z,10.07
2022-11-10T20:27:28.921Z,10.07
2022-11-10T20:29:55.627Z,10.05
2022-11-10T20:32:22.240Z,10.04
2022-11-10T20:34:48.948Z,10.02
2022-11-10T20:37:15.570Z,10.04
2022-11-10T20:39:42.240Z,10.04
2022-11-10T20:42:10.380Z,10.06
2022-11-10T20:44:37.169Z,10.06
2022-11-10T20:47:04.504Z,10.05
2022-11-10T20:49:31.456Z,10.06
2022-11-10T20:51:59.846Z,10.05
2022-11-10T20:54:27.520Z,10.05
2022-11-10T20:56:54.523Z,10.06
2022-11-10T20:59:23.368Z,10.05
2022-11-10T21:01:49.965Z,10.05
2022-11-10T21:04:16.793Z,10.04
2022-11-10T21:06:43.418Z,10.02
2022-11-10T21:09:12.942Z,10.01
2022-11-10T21:11:58.357Z,10.03
2022-11-10T21:14:24.931Z,10.01
2022-11-10T21:16:51.488Z,10.04
2022-11-10T21:19:31.404Z,10.03
2022-11-10T21:22:01.350Z,10.05
2022-11-10T21:24:29.190Z,10.07
2022-11-10T21:26:57.137Z,10.08
2022-11-10T21:29:25.984Z,10.10
2022-11-10T21:31:54.602Z,10.09
2022-11-10T21:34:21.184Z,10.11
2022-11-10T21:36:47.911Z,10.14
2022-11-10T21:39:14.461Z,10.16
2022-11-10T21:41:42.788Z,10.18
2022-11-10T21:44:09.372Z,10.21
2022-11-10T21:46:35.937Z,10.24
2022-11-10T21:49:07.438Z,10.25
2022-11-10T21:51:34.548Z,10.26
2022-11-10T21:54:01.093Z,10.30
2022-11-10T21:56:27.640Z,10.32
2022-11-10T21:58:54.212Z,10.35
2022-11-10T22:01:21.082Z,10.37
2022-11-10T22:03:48.265Z,10.39
2022-11-10T22:06:17.227Z,10.41
2022-11-10T22:08:45.440Z,10.43
2022-11-10T22:11:33.837Z,10.45
2022-11-10T22:14:19.747Z,10.46
2022-11-10T22:17:06.852Z,10.48
2022-11-10T22:19:36.204Z,10.48
2022-11-10T22:22:04.134Z,10.52
2022-11-10T22:24:31.545Z,10.52
2022-11-10T22:27:03.775Z,10.53
2022-11-10T22:29:33.717Z,10.56
2022-11-10T22:32:01.263Z,10.57
2022-11-10T22:34:28.073Z,10.58
2022-11-10T22:36:59.672Z,10.60
2022-11-10T22:39:46.533Z,10.61
2022-11-10T22:42:34.780Z,10.63
2022-11-10T22:45:01.694Z,10.62
2022-11-10T22:47:48.426Z,10.63
2022-11-10T22:50:15.124Z,10.64
2022-11-10T22:52:41.689Z,10.64
2022-11-10T22:55:08.589Z,10.65
2022-11-10T22:57:35.168Z,10.63
2022-11-10T23:00:01.772Z,10.64
2022-11-10T23:02:30.460Z,10.66
2022-11-10T23:04:59.248Z,10.67
2022-11-10T23:07:25.814Z,10.67
2022-11-10T23:09:55.407Z,10.68
2022-11-10T23:12:22.013Z,10.68
2022-11-10T23:14:51.514Z,10.70
2022-11-10T23:17:18.089Z,10.69
2022-11-10T23:19:44.806Z,10.69
2022-11-10T23:22:11.387Z,10.70
2022-11-10T23:24:38.142Z,10.70
2022-11-10T23:27:04.765Z,10.71
2022-11-10T23:29:31.342Z,10.71
2022-11-10T23:31:57.916Z,10.73
2022-11-10T23:34:24.523Z,10.74
2022-11-10T23:36:51.084Z,10.74
2022-11-10T23:39:21.881Z,10.72
2022-11-10T23:41:48.433Z,10.72
2022-11-10T23:44:15.075Z,10.73
2022-11-10T23:46:44.481Z,10.72
2022-11-10T23:49:11.049Z,10.72
2022-11-10T23:51:37.615Z,10.73
2022-11-10T23:54:04.353Z,10.72
2022-11-10T23:56:30.918Z,10.73
2022-11-10T23:58:57.477Z,10.74
